createdAt,value
2018-06-05T00:01:02.978Z,21.67
2018-06-05T00:03:33.186Z,21.59
2018-06-05T00:06:04.031Z,21.67
2018-06-05T00:08:33.980Z,21.59
2018-06-05T00:11:04.366Z,21.50
2018-06-05T00:13:35.041Z,21.51
2018-06-05T00:16:05.914Z,21.54
2018-06-05T00:18:36.439Z,21.52
2018-06-05T00:21:07.140Z,21.59
2018-06-05T00:23:37.493Z,21.60
2018-06-05T00:26:08.405Z,21.58
2018-06-05T00:28:38.834Z,21.51
2018-06-05T00:31:08.764Z,21.58
2018-06-05T00:33:39.035Z,21.66
2018-06-05T00:36:09.048Z,21.70
2018-06-05T00:38:39.064Z,21.71
2018-06-05T00:41:09.608Z,21.69
2018-06-05T00:43:39.709Z,21.70
2018-06-05T00:46:09.653Z,21.72
2018-06-05T00:48:40.024Z,21.70
2018-06-05T00:52:14.805Z,21.71
2018-06-05T00:54:44.825Z,21.75
2018-06-05T00:57:14.967Z,21.70
2018-06-05T00:59:45.343Z,21.60
2018-06-05T01:02:16.073Z,21.60
2018-06-05T01:04:46.643Z,21.53
2018-06-05T01:07:16.912Z,21.52
2018-06-05T01:09:47.504Z,21.50
2018-06-05T01:12:17.939Z,21.52
2018-06-05T01:14:48.420Z,21.59
2018-06-05T01:17:18.938Z,21.63
2018-06-05T01:19:49.793Z,21.57
2018-06-05T01:22:20.076Z,21.54
2018-06-05T01:24:50.660Z,21.49
2018-06-05T01:27:21.468Z,21.48
2018-06-05T01:29:52.544Z,21.54
2018-06-05T01:32:22.743Z,21.64
2018-06-05T01:34:52.917Z,21.71
2018-06-05T01:37:23.090Z,21.76
2018-06-05T01:39:53.439Z,21.77
2018-06-05T01:42:24.243Z,21.69
2018-06-05T01:44:54.705Z,21.67
2018-06-05T01:47:25.439Z,21.60
2018-06-05T01:49:55.853Z,21.59
2018-06-05T01:52:26.341Z,21.64
2018-06-05T01:54:57.131Z,21.65
2018-06-05T01:57:27.485Z,21.69
2018-06-05T01:59:57.770Z,21.73
2018-06-05T02:02:28.548Z,21.74
2018-06-05T02:04:59.227Z,21.67
2018-06-05T02:07:29.179Z,21.69
2018-06-05T02:10:00.388Z,21.67
2018-06-05T02:12:30.740Z,21.59
2018-06-05T02:15:00.904Z,21.67
2018-06-05T02:17:32.026Z,21.68
2018-06-05T02:20:02.202Z,21.61
2018-06-05T02:22:32.732Z,21.60
2018-06-05T02:25:03.194Z,21.51
2018-06-05T02:27:33.866Z,21.51
2018-06-05T02:30:04.197Z,21.54
2018-06-05T02:32:34.698Z,21.47
2018-06-05T02:35:05.640Z,21.48
2018-06-05T02:37:35.984Z,21.43
2018-06-05T02:40:07.620Z,21.52
2018-06-05T02:42:37.880Z,21.47
2018-06-05T02:45:08.021Z,21.50
2018-06-05T02:47:38.286Z,21.42
2018-06-05T02:50:09.084Z,21.41
2018-06-05T02:52:39.253Z,21.42
2018-06-05T02:55:09.300Z,21.51
2018-06-05T02:57:39.409Z,21.54
2018-06-05T03:00:09.323Z,21.45
2018-06-05T03:02:39.470Z,21.39
2018-06-05T03:05:09.670Z,21.37
2018-06-05T03:07:39.880Z,21.42
2018-06-05T03:10:10.921Z,21.44
2018-06-05T03:12:41.206Z,21.34
2018-06-05T03:15:11.460Z,21.36
2018-06-05T03:17:41.671Z,21.34
2018-06-05T03:20:11.756Z,21.37
2018-06-05T03:22:42.039Z,21.42
2018-06-05T03:25:11.841Z,21.30
2018-06-05T03:27:42.368Z,21.21
2018-06-05T03:30:12.545Z,21.17
2018-06-05T03:32:42.751Z,21.16
2018-06-05T03:35:12.956Z,21.06
2018-06-05T03:37:43.171Z,21.09
2018-06-05T03:40:13.039Z,21.10
2018-06-05T03:42:43.062Z,21.17
2018-06-05T03:45:13.175Z,21.20
2018-06-05T03:47:42.995Z,21.20
2018-06-05T03:50:13.202Z,21.04
2018-06-05T03:52:43.415Z,21.08
2018-06-05T03:55:13.644Z,21.13
2018-06-05T03:57:43.736Z,21.29
2018-06-05T04:00:13.661Z,21.21
2018-06-05T04:02:43.773Z,21.21
2018-06-05T04:05:13.855Z,21.11
2018-06-05T04:07:43.748Z,21.12
2018-06-05T04:10:13.772Z,21.09
2018-06-05T04:12:43.623Z,21.09
2018-06-05T04:15:13.713Z,21.12
2018-06-05T04:17:43.613Z,21.13
2018-06-05T04:20:13.606Z,21.17
2018-06-05T04:22:43.910Z,21.19
2018-06-05T04:25:13.756Z,21.04
2018-06-05T04:27:44.205Z,20.97
2018-06-05T04:30:14.346Z,20.98
2018-06-05T04:32:44.353Z,20.91
2018-06-05T04:35:14.750Z,20.90
2018-06-05T04:37:44.616Z,20.95
2018-06-05T04:40:14.780Z,20.94
2018-06-05T04:42:44.961Z,20.98
2018-06-05T04:45:15.156Z,21.01
2018-06-05T04:47:45.160Z,20.83
2018-06-05T04:50:15.016Z,20.79
2018-06-05T04:52:45.027Z,20.77
2018-06-05T04:55:15.426Z,20.68
2018-06-05T04:57:45.689Z,20.70
2018-06-05T05:00:15.637Z,20.72
2018-06-05T05:02:45.960Z,20.73
2018-06-05T05:05:16.216Z,20.67
2018-06-05T05:07:46.348Z,20.53
2018-06-05T05:10:16.509Z,20.58
2018-06-05T05:12:46.762Z,20.62
2018-06-05T05:15:16.905Z,20.47
2018-06-05T05:17:47.240Z,20.38
2018-06-05T05:20:17.380Z,20.42
2018-06-05T05:22:47.657Z,20.42
2018-06-05T05:25:17.775Z,20.30
2018-06-05T05:27:47.841Z,20.18
2018-06-05T05:30:18.076Z,20.46
2018-06-05T05:32:48.066Z,20.96
2018-06-05T05:35:18.034Z,21.18
2018-06-05T05:37:48.152Z,21.48
2018-06-05T05:40:17.975Z,21.75
2018-06-05T05:42:48.361Z,21.92
2018-06-05T05:45:18.262Z,22.21
2018-06-05T05:47:48.484Z,22.39
2018-06-05T05:50:18.771Z,22.38
2018-06-05T05:52:49.515Z,22.43
2018-06-05T05:55:19.869Z,22.37
2018-06-05T05:57:50.374Z,22.23
2018-06-05T06:00:20.431Z,22.07
2018-06-05T06:02:51.612Z,21.83
2018-06-05T06:05:22.080Z,21.42
2018-06-05T06:07:52.206Z,21.15
2018-06-05T06:10:23.345Z,21.00
2018-06-05T06:12:53.302Z,20.77
2018-06-05T06:15:24.191Z,20.66
2018-06-05T06:17:54.715Z,20.62
2018-06-05T06:20:25.071Z,20.43
2018-06-05T06:22:55.707Z,20.44
2018-06-05T06:25:26.313Z,20.44
2018-06-05T06:27:56.566Z,20.43
2018-06-05T06:30:27.545Z,20.44
2018-06-05T06:32:57.836Z,20.51
2018-06-05T06:35:28.422Z,20.49
2018-06-05T06:37:59.272Z,20.57
2018-06-05T06:40:29.407Z,20.66
2018-06-05T06:42:59.705Z,20.45
2018-06-05T06:45:30.116Z,20.46
2018-06-05T06:48:01.018Z,20.55
2018-06-05T06:50:31.312Z,20.60
2018-06-05T06:53:01.896Z,20.69
2018-06-05T06:55:32.515Z,20.60
2018-06-05T06:58:02.734Z,20.61
2018-06-05T07:00:33.352Z,20.65
2018-06-05T07:03:03.718Z,20.62
2018-06-05T07:05:33.872Z,20.63
2018-06-05T07:08:03.850Z,20.65
2018-06-05T07:10:33.782Z,20.69
2018-06-05T07:13:03.910Z,20.71
2018-06-05T07:15:34.072Z,20.75
2018-06-05T07:18:04.150Z,20.65
2018-06-05T07:20:34.327Z,20.62
2018-06-05T07:23:04.767Z,20.61
2018-06-05T07:25:34.905Z,20.67
2018-06-05T07:28:04.740Z,20.81
2018-06-05T07:30:35.096Z,20.84
2018-06-05T07:33:05.410Z,20.84
2018-06-05T07:35:35.765Z,20.75
2018-06-05T07:38:05.955Z,20.69
2018-06-05T07:40:35.571Z,20.64
2018-06-05T07:43:05.683Z,20.75
2018-06-05T07:45:35.423Z,20.78
2018-06-05T07:48:05.640Z,20.93
2018-06-05T07:50:35.972Z,20.96
2018-06-05T07:53:06.141Z,20.86
2018-06-05T07:55:36.119Z,20.83
2018-06-05T07:58:06.466Z,20.86
2018-06-05T08:00:36.474Z,20.77
2018-06-05T08:03:06.849Z,20.76
2018-06-05T08:05:37.131Z,20.63
2018-06-05T08:08:07.135Z,20.65
2018-06-05T08:10:37.347Z,20.71
2018-06-05T08:13:07.630Z,20.85
2018-06-05T08:15:37.862Z,20.83
2018-06-05T08:18:08.018Z,20.87
2018-06-05T08:20:37.928Z,20.98
2018-06-05T08:23:08.251Z,21.10
2018-06-05T08:25:38.307Z,21.21
2018-06-05T08:28:08.337Z,21.16
2018-06-05T08:30:38.740Z,21.25
2018-06-05T08:33:09.056Z,21.26
2018-06-05T08:35:39.288Z,21.20
2018-06-05T08:38:09.515Z,21.02
2018-06-05T08:40:39.771Z,20.89
2018-06-05T08:43:09.918Z,20.82
2018-06-05T08:45:40.115Z,20.89
2018-06-05T08:48:09.997Z,20.92
2018-06-05T08:50:40.487Z,20.99
2018-06-05T08:53:10.661Z,20.92
2018-06-05T08:55:40.851Z,21.04
2018-06-05T08:58:10.748Z,21.11
2018-06-05T09:00:41.216Z,21.14
2018-06-05T09:03:11.663Z,21.09
2018-06-05T09:05:41.844Z,21.12
2018-06-05T09:08:12.105Z,21.25
2018-06-05T09:10:42.310Z,21.12
2018-06-05T09:13:12.308Z,21.15
2018-06-05T09:15:42.578Z,21.08
2018-06-05T09:18:15.572Z,21.08
2018-06-05T09:20:45.763Z,21.23
2018-06-05T09:23:15.988Z,21.28
2018-06-05T09:25:46.143Z,21.24
2018-06-05T09:28:16.522Z,21.22
2018-06-05T09:30:48.212Z,21.27
2018-06-05T09:33:18.728Z,21.26
2018-06-05T09:35:51.908Z,21.29
2018-06-05T09:38:22.018Z,21.25
2018-06-05T09:40:52.466Z,21.25
2018-06-05T09:43:22.517Z,21.31
2018-06-05T09:45:52.276Z,21.30
2018-06-05T09:48:22.772Z,21.34
2018-06-05T09:50:53.027Z,21.33
2018-06-05T09:53:23.157Z,21.33
2018-06-05T09:55:53.336Z,21.37
2018-06-05T09:58:23.732Z,21.40
2018-06-05T10:00:54.326Z,21.35
2018-06-05T10:03:26.079Z,21.41
2018-06-05T10:05:56.211Z,21.43
2018-06-05T10:08:26.472Z,21.51
2018-06-05T10:10:56.727Z,21.46
2018-06-05T10:13:26.762Z,21.38
2018-06-05T10:15:57.019Z,21.53
2018-06-05T10:18:27.203Z,21.63
2018-06-05T10:20:57.383Z,21.71
2018-06-05T10:23:27.732Z,21.74
2018-06-05T10:25:57.892Z,21.68
2018-06-05T10:28:28.058Z,21.65
2018-06-05T10:30:58.149Z,21.69
2018-06-05T10:33:28.198Z,21.73
2018-06-05T10:35:58.504Z,21.76
2018-06-05T10:38:28.362Z,21.78
2018-06-05T10:40:58.508Z,21.82
2018-06-05T10:43:28.794Z,21.89
2018-06-05T10:45:58.833Z,21.94
2018-06-05T10:48:28.933Z,21.92
2018-06-05T10:50:58.932Z,21.82
2018-06-05T10:53:29.043Z,21.72
2018-06-05T10:55:59.087Z,21.74
2018-06-05T10:58:28.908Z,21.81
2018-06-05T11:00:58.897Z,21.88
2018-06-05T11:03:29.013Z,21.98
2018-06-05T11:05:59.038Z,22.05
2018-06-05T11:08:29.102Z,22.11
2018-06-05T11:10:59.247Z,22.18
2018-06-05T11:13:29.227Z,22.30
2018-06-05T11:15:59.264Z,22.12
2018-06-05T11:18:29.170Z,22.07
2018-06-05T11:20:59.109Z,22.11
2018-06-05T11:23:29.488Z,22.14
2018-06-05T11:26:00.468Z,22.22
2018-06-05T11:28:30.725Z,22.23
2018-06-05T11:31:01.213Z,22.17
2018-06-05T11:33:32.808Z,22.17
2018-06-05T11:36:03.108Z,22.25
2018-06-05T11:38:33.530Z,22.21
2018-06-05T11:41:03.827Z,22.19
2018-06-05T11:43:33.778Z,22.11
2018-06-05T11:46:04.365Z,22.06
2018-06-05T11:48:35.039Z,22.02
2018-06-05T11:51:05.413Z,22.06
2018-06-05T11:53:36.128Z,22.10
2018-06-05T11:56:06.823Z,22.15
2018-06-05T11:58:37.568Z,22.26
2018-06-05T12:01:08.061Z,22.33
2018-06-05T12:03:39.254Z,22.36
2018-06-05T12:06:09.520Z,22.43
2018-06-05T12:08:39.618Z,22.50
2018-06-05T12:11:10.677Z,22.43
2018-06-05T12:13:40.972Z,22.46
2018-06-05T12:16:11.289Z,22.41
2018-06-05T12:18:41.829Z,22.37
2018-06-05T12:21:12.238Z,22.42
2018-06-05T12:23:43.663Z,22.35
2018-06-05T12:26:13.521Z,22.13
2018-06-05T12:28:44.337Z,22.21
2018-06-05T12:31:15.055Z,22.30
2018-06-05T12:33:46.151Z,22.32
2018-06-05T12:36:16.002Z,22.43
2018-06-05T12:38:46.903Z,22.52
2018-06-05T12:41:17.094Z,22.39
2018-06-05T12:43:47.317Z,22.31
2018-06-05T12:46:17.456Z,22.28
2018-06-05T12:48:47.603Z,22.36
2018-06-05T12:51:17.949Z,22.43
2018-06-05T12:53:48.112Z,22.56
2018-06-05T12:56:18.459Z,22.73
2018-06-05T12:58:48.470Z,22.86
2018-06-05T13:01:18.707Z,22.99
2018-06-05T13:03:48.924Z,23.02
2018-06-05T13:06:19.173Z,23.06
2018-06-05T13:08:49.183Z,23.06
2018-06-05T13:11:19.601Z,23.03
2018-06-05T13:13:49.610Z,23.02
2018-06-05T13:16:19.876Z,23.05
2018-06-05T13:18:50.048Z,23.08
2018-06-05T13:21:20.214Z,23.15
2018-06-05T13:23:50.537Z,23.16
2018-06-05T13:26:20.630Z,23.08
2018-06-05T13:28:50.812Z,23.15
2018-06-05T13:31:20.960Z,23.13
2018-06-05T13:33:51.189Z,23.19
2018-06-05T13:36:21.456Z,23.31
2018-06-05T13:38:51.564Z,23.39
2018-06-05T13:41:21.837Z,23.41
2018-06-05T13:43:52.176Z,23.52
2018-06-05T13:46:22.239Z,23.57
2018-06-05T13:48:52.473Z,23.61
2018-06-05T13:51:22.603Z,23.67
2018-06-05T13:53:52.899Z,23.88
2018-06-05T13:56:23.055Z,24.04
2018-06-05T13:58:53.104Z,24.26
2018-06-05T14:01:23.387Z,24.46
2018-06-05T14:03:54.040Z,24.55
2018-06-05T14:06:24.523Z,24.67
2018-06-05T14:08:54.998Z,25.01
2018-06-05T14:11:25.251Z,25.35
2018-06-05T14:13:55.358Z,25.69
2018-06-05T14:16:25.602Z,26.07
2018-06-05T14:18:55.880Z,26.35
2018-06-05T14:21:26.058Z,26.26
2018-06-05T14:23:56.180Z,26.29
2018-06-05T14:26:26.343Z,26.54
2018-06-05T14:28:56.555Z,26.76
2018-06-05T14:31:26.904Z,27.07
2018-06-05T14:33:57.388Z,27.33
2018-06-05T14:36:28.019Z,27.38
2018-06-05T14:38:58.472Z,27.59
2018-06-05T14:41:28.698Z,27.77
2018-06-05T14:43:58.681Z,27.90
2018-06-05T14:46:29.020Z,28.01
2018-06-05T14:48:59.313Z,27.73
2018-06-05T14:51:29.568Z,27.64
2018-06-05T14:54:00.004Z,27.86
2018-06-05T14:56:30.649Z,27.96
2018-06-05T14:59:00.890Z,28.17
2018-06-05T15:01:31.294Z,28.14
2018-06-05T15:04:01.253Z,28.37
2018-06-05T15:06:31.279Z,28.42
2018-06-05T15:09:01.591Z,28.61
2018-06-05T15:11:31.773Z,28.81
2018-06-05T15:14:02.054Z,28.82
2018-06-05T15:16:32.070Z,28.85
2018-06-05T15:19:02.313Z,28.94
2018-06-05T15:21:32.664Z,29.18
2018-06-05T15:24:02.518Z,29.12
2018-06-05T15:26:32.929Z,29.13
2018-06-05T15:29:03.116Z,29.21
2018-06-05T15:31:33.300Z,29.29
2018-06-05T15:34:03.584Z,29.28
2018-06-05T15:36:33.705Z,29.45
2018-06-05T15:39:03.909Z,29.74
2018-06-05T15:41:34.090Z,29.92
2018-06-05T15:44:04.301Z,29.92
2018-06-05T15:46:34.474Z,30.06
2018-06-05T15:49:04.746Z,30.25
2018-06-05T15:51:35.059Z,30.32
2018-06-05T15:54:05.299Z,30.23
2018-06-05T15:56:35.420Z,30.27
2018-06-05T15:59:05.625Z,30.33
2018-06-05T16:01:35.998Z,30.41
2018-06-05T16:04:06.371Z,29.97
2018-06-05T16:06:37.115Z,29.68
2018-06-05T16:09:10.278Z,29.71
2018-06-05T16:11:40.120Z,30.25
2018-06-05T16:14:10.441Z,30.91
2018-06-05T16:16:40.495Z,31.49
2018-06-05T16:19:09.963Z,31.72
2018-06-05T16:21:40.296Z,32.63
2018-06-05T16:24:10.319Z,32.73
2018-06-05T16:26:40.680Z,32.92
2018-06-05T16:29:10.853Z,33.81
2018-06-05T16:31:40.994Z,34.53
2018-06-05T16:34:11.036Z,34.76
2018-06-05T16:36:41.228Z,35.18
2018-06-05T16:39:18.123Z,35.60
2018-06-05T16:41:48.443Z,35.92
2018-06-05T16:44:18.652Z,36.23
2018-06-05T16:46:48.695Z,35.51
2018-06-05T16:49:19.198Z,35.71
2018-06-05T16:51:49.433Z,35.81
2018-06-05T16:54:19.593Z,35.49
2018-06-05T16:56:50.000Z,34.67
2018-06-05T16:59:20.228Z,34.53
2018-06-05T17:01:50.441Z,34.79
2018-06-05T17:04:20.600Z,34.72
2018-06-05T17:06:50.980Z,34.35
2018-06-05T17:09:21.646Z,34.19
2018-06-05T17:11:51.968Z,33.90
2018-06-05T17:14:22.006Z,33.77
2018-06-05T17:16:52.222Z,33.85
2018-06-05T17:19:22.433Z,33.74
2018-06-05T17:21:52.723Z,33.54
2018-06-05T17:24:23.078Z,33.29
2018-06-05T17:26:53.225Z,32.79
2018-06-05T17:29:23.288Z,32.27
2018-06-05T17:31:53.653Z,32.25
2018-06-05T17:34:23.595Z,32.43
2018-06-05T17:36:53.943Z,32.55
2018-06-05T17:39:24.998Z,32.55
2018-06-05T17:41:55.208Z,32.74
2018-06-05T17:44:25.298Z,32.46
2018-06-05T17:46:56.210Z,32.15
2018-06-05T17:49:26.697Z,32.18
2018-06-05T17:51:57.219Z,32.41
2018-06-05T17:54:28.088Z,32.61
2018-06-05T17:56:58.476Z,32.78
2018-06-05T17:59:28.996Z,32.77
2018-06-05T18:01:59.658Z,32.51
2018-06-05T18:04:30.120Z,32.36
2018-06-05T18:07:00.968Z,31.92
2018-06-05T18:09:31.146Z,31.63
2018-06-05T18:12:01.950Z,31.20
2018-06-05T18:14:32.214Z,30.85
2018-06-05T18:17:03.071Z,30.72
2018-06-05T18:19:33.564Z,30.46
2018-06-05T18:22:04.636Z,30.45
2018-06-05T18:24:34.857Z,30.53
2018-06-05T18:27:05.868Z,30.32
2018-06-05T18:29:36.829Z,29.74
2018-06-05T18:32:06.985Z,29.52
2018-06-05T18:34:37.766Z,29.42
2018-06-05T18:37:08.419Z,29.08
2018-06-05T18:39:38.593Z,28.48
2018-06-05T18:42:08.685Z,27.91
2018-06-05T18:44:38.828Z,27.63
2018-06-05T18:47:08.616Z,27.27
2018-06-05T18:49:38.864Z,26.94
2018-06-05T18:52:09.465Z,26.71
2018-06-05T18:54:39.975Z,26.50
2018-06-05T18:57:10.016Z,26.36
2018-06-05T18:59:40.528Z,26.28
2018-06-05T19:02:10.799Z,26.20
2018-06-05T19:04:40.374Z,26.19
2018-06-05T19:07:10.712Z,25.99
2018-06-05T19:09:41.011Z,25.81
2018-06-05T19:12:11.350Z,25.69
2018-06-05T19:14:41.269Z,25.61
2018-06-05T19:17:11.504Z,25.51
2018-06-05T19:19:41.541Z,25.31
2018-06-05T19:22:11.866Z,25.17
2018-06-05T19:24:42.113Z,25.11
2018-06-05T19:27:12.660Z,25.17
2018-06-05T19:29:43.098Z,25.23
2018-06-05T19:32:13.701Z,25.26
2018-06-05T19:34:43.814Z,25.25
2018-06-05T19:37:14.118Z,25.31
2018-06-05T19:39:44.317Z,25.31
2018-06-05T19:42:14.587Z,25.31
2018-06-05T19:44:44.669Z,25.29
2018-06-05T19:47:14.795Z,25.17
2018-06-05T19:49:44.838Z,25.16
2018-06-05T19:52:15.126Z,25.15
2018-06-05T19:54:45.319Z,25.10
2018-06-05T19:57:15.508Z,25.09
2018-06-05T19:59:45.789Z,25.10
2018-06-05T20:02:15.929Z,25.01
2018-06-05T20:04:46.167Z,24.97
2018-06-05T20:07:16.417Z,24.94
2018-06-05T20:09:46.584Z,24.89
2018-06-05T20:12:16.517Z,24.90
2018-06-05T20:14:46.648Z,24.91
2018-06-05T20:17:16.806Z,24.91
2018-06-05T20:19:46.767Z,24.87
2018-06-05T20:22:16.617Z,24.83
2018-06-05T20:24:46.819Z,24.85
2018-06-05T20:27:16.980Z,24.71
2018-06-05T20:29:47.183Z,24.51
2018-06-05T20:32:17.322Z,24.29
2018-06-05T20:34:47.654Z,24.11
2018-06-05T20:37:17.659Z,24.02
2018-06-05T20:39:47.924Z,23.84
2018-06-05T20:42:18.109Z,23.68
2018-06-05T20:44:48.349Z,23.55
2018-06-05T20:47:18.395Z,23.44
2018-06-05T20:49:48.538Z,23.34
2018-06-05T20:52:18.924Z,23.24
2018-06-05T20:54:49.185Z,23.17
2018-06-05T20:57:19.504Z,23.05
2018-06-05T20:59:49.596Z,22.96
2018-06-05T21:02:20.023Z,22.94
2018-06-05T21:04:50.249Z,22.93
2018-06-05T21:07:20.504Z,22.89
2018-06-05T21:09:50.695Z,22.84
2018-06-05T21:12:20.965Z,22.73
2018-06-05T21:14:50.998Z,22.59
2018-06-05T21:17:21.236Z,22.58
2018-06-05T21:19:51.316Z,22.60
2018-06-05T21:22:21.249Z,22.53
2018-06-05T21:24:51.304Z,22.39
2018-06-05T21:27:21.732Z,22.37
2018-06-05T21:29:51.781Z,22.36
2018-06-05T21:32:21.925Z,22.36
2018-06-05T21:34:52.164Z,22.38
2018-06-05T21:37:22.355Z,22.34
2018-06-05T21:39:52.514Z,22.34
2018-06-05T21:42:22.805Z,22.27
2018-06-05T21:44:52.998Z,22.18
2018-06-05T21:47:23.149Z,22.10
2018-06-05T21:49:53.399Z,22.01
2018-06-05T21:52:23.499Z,21.95
2018-06-05T21:54:53.835Z,21.98
2018-06-05T21:57:24.064Z,22.01
2018-06-05T21:59:54.104Z,21.98
2018-06-05T22:02:24.185Z,21.97
2018-06-05T22:04:54.017Z,21.92
2018-06-05T22:07:24.539Z,21.91
2018-06-05T22:09:55.260Z,21.92
2018-06-05T22:12:25.649Z,21.92
2018-06-05T22:14:56.197Z,21.85
2018-06-05T22:17:26.444Z,21.80
2018-06-05T22:19:57.264Z,21.79
2018-06-05T22:22:27.531Z,21.78
2018-06-05T22:24:58.041Z,21.76
2018-06-05T22:27:28.711Z,21.79
2018-06-05T22:29:59.336Z,21.79
2018-06-05T22:32:29.851Z,21.78
2018-06-05T22:35:00.492Z,21.77
2018-06-05T22:37:30.813Z,21.73
2018-06-05T22:40:00.620Z,21.70
2018-06-05T22:42:31.591Z,21.68
2018-06-05T22:45:05.281Z,21.62
2018-06-05T22:47:35.647Z,21.57
2018-06-05T22:50:05.772Z,21.51
2018-06-05T22:52:35.860Z,21.48
2018-06-05T22:55:06.287Z,21.48
2018-06-05T22:57:36.316Z,21.49
2018-06-05T23:00:06.517Z,21.50
2018-06-05T23:02:36.921Z,21.43
2018-06-05T23:05:07.046Z,21.39
2018-06-05T23:07:37.315Z,21.39
2018-06-05T23:10:07.280Z,21.37
2018-06-05T23:12:37.424Z,21.33
2018-06-05T23:15:07.577Z,21.32
2018-06-05T23:17:37.951Z,21.31
2018-06-05T23:20:08.091Z,21.26
2018-06-05T23:22:37.986Z,21.27
2018-06-05T23:25:08.156Z,21.25
2018-06-05T23:27:38.889Z,21.19
2018-06-05T23:30:08.927Z,21.22
2018-06-05T23:32:39.059Z,21.17
2018-06-05T23:35:08.609Z,21.17
2018-06-05T23:37:38.612Z,21.10
2018-06-05T23:40:08.966Z,21.08
2018-06-05T23:42:38.977Z,21.04
2018-06-05T23:45:09.076Z,20.98
2018-06-05T23:47:39.432Z,20.89
2018-06-05T23:50:09.395Z,20.87
2018-06-05T23:52:39.820Z,20.77
2018-06-05T23:55:09.912Z,20.66
2018-06-05T23:57:39.878Z,20.62
